Main page
METAR-TAF:

METAR-TAF

Airports :

Tabas, Iran

Tabas Airport

latitude: 33-36N, longitude: 056-55E, elevation: 710 m

Current weather observation

The report was made 12 hours and 36 minutes ago, at 07:00 UTC
Calm wind
Temperature 11°C
Humidity 25%
Pressure 1025 hPa
Visibility 10 km or more
no clouds below 1500 m and no cumulonimbus

METAR: OIMT 170700Z 00000KT CAVOK 11/M08 Q1025

Time: 23:06 (19:36 UTC)


TAF: missing

Weather observations and forecasts of more than 4000 airports (METAR and TAF reports).

The available stations are represented by yellow and red dots on the map.

Hover mouse over dot to see the name of the station.

Then click to see weather observations and forecasts.

To change the map : click on the green buttons with a black cross to zoom in, on the green button with a dash to zoom out, or on the green arrows for adjacent maps.


METAR-TAF: